Irwin, Missouri
Current Conditions -  °F | °C
As of 9:15 AM on Wednesday 22 Oct 2014 (Local Time) from KPTS Reporting Station
Scattered Clouds Scattered Clouds  
Wind Chill: 58°   Ceiling: Unl
Heat Index: 58°   Visibility: 10mi
Dew Point: 51°   Wind: 7mph
Humidity: 77%   Direction: 160°SSE
Pressure: 30.2"   Gusts: NA
Location:  37.5121°N, 94.2674°W
Report Text: KPTS 221415Z AUTO 16006KT 10SM SCT065 15/11 A3020 RMK AO2 T01450105
Loading
Personal Weather Stations






























Interactive Weather Map
Tropical Storm Tracking
New forecast layout! Learn more

10-Day Weather Forecast

Advertisements
Track Severe Weather on mobile